createdAt,value
2022-12-28T00:01:33.553Z,5.20
2022-12-28T00:03:35.667Z,5.19
2022-12-28T00:05:40.228Z,5.18
2022-12-28T00:07:41.665Z,5.19
2022-12-28T00:09:43.150Z,5.23
2022-12-28T00:11:44.625Z,5.24
2022-12-28T00:13:46.147Z,5.26
2022-12-28T00:15:47.615Z,5.28
2022-12-28T00:17:49.128Z,5.29
2022-12-28T00:19:50.586Z,5.28
2022-12-28T00:21:53.530Z,5.28
2022-12-28T00:23:58.284Z,5.28
2022-12-28T00:26:13.456Z,5.30
2022-12-28T00:28:14.889Z,5.30
2022-12-28T00:30:16.453Z,5.33
2022-12-28T00:32:17.889Z,5.32
2022-12-28T00:34:19.355Z,5.35
2022-12-28T00:36:20.821Z,5.36
2022-12-28T00:38:22.414Z,5.36
2022-12-28T00:40:24.358Z,5.36
2022-12-28T00:42:25.901Z,5.34
2022-12-28T00:44:27.365Z,5.34
2022-12-28T00:46:28.824Z,5.38
2022-12-28T00:48:30.332Z,5.38
2022-12-28T00:50:32.093Z,5.39
2022-12-28T00:52:33.610Z,5.40
2022-12-28T00:54:35.120Z,5.40
2022-12-28T00:56:36.621Z,5.36
2022-12-28T00:58:38.601Z,5.38
2022-12-28T01:00:40.130Z,5.36
2022-12-28T01:02:41.687Z,5.34
2022-12-28T01:04:43.302Z,5.35
2022-12-28T01:06:44.804Z,5.35
2022-12-28T01:08:46.822Z,5.38
2022-12-28T01:10:48.329Z,5.39
2022-12-28T01:12:49.787Z,5.39
2022-12-28T01:14:51.259Z,5.39
2022-12-28T01:16:52.804Z,5.40
2022-12-28T01:18:57.338Z,5.43
2022-12-28T01:20:58.819Z,5.42
2022-12-28T01:23:00.257Z,5.42
2022-12-28T01:25:01.740Z,5.42
2022-12-28T01:27:03.337Z,5.43
2022-12-28T01:29:04.784Z,5.45
2022-12-28T01:31:12.297Z,5.45
2022-12-28T01:33:13.729Z,5.43
2022-12-28T01:35:15.181Z,5.45
2022-12-28T01:37:16.745Z,5.47
2022-12-28T01:39:18.245Z,5.47
2022-12-28T01:41:20.079Z,5.48
2022-12-28T01:43:45.374Z,5.49
2022-12-28T01:45:52.674Z,5.46
2022-12-28T01:47:56.311Z,5.46
2022-12-28T01:50:11.592Z,5.44
2022-12-28T01:52:15.882Z,5.42
2022-12-28T01:54:19.137Z,5.40
2022-12-28T01:56:22.526Z,5.40
2022-12-28T01:58:28.514Z,5.38
2022-12-28T02:00:30.063Z,5.35
2022-12-28T02:02:31.949Z,5.33
2022-12-28T02:04:33.657Z,5.32
2022-12-28T02:06:35.188Z,5.32
2022-12-28T02:09:15.509Z,5.32
2022-12-28T02:11:18.952Z,5.29
2022-12-28T02:13:22.188Z,5.27
2022-12-28T02:15:23.706Z,5.26
2022-12-28T02:17:25.391Z,5.26
2022-12-28T02:19:40.210Z,5.23
2022-12-28T02:22:00.994Z,5.22
2022-12-28T02:24:29.841Z,5.18
2022-12-28T02:26:53.710Z,5.16
2022-12-28T02:29:07.456Z,5.13
2022-12-28T02:31:17.165Z,5.13
2022-12-28T02:33:26.973Z,5.12
2022-12-28T02:35:38.950Z,5.10
2022-12-28T02:37:56.554Z,5.07
2022-12-28T02:40:37.991Z,5.05
2022-12-28T02:42:40.470Z,5.00
2022-12-28T02:45:00.631Z,4.97
2022-12-28T02:47:20.992Z,4.95
2022-12-28T02:49:46.984Z,4.93
2022-12-28T02:52:15.576Z,4.93
2022-12-28T02:54:42.040Z,4.91
2022-12-28T02:57:00.078Z,4.89
2022-12-28T02:59:40.048Z,4.90
2022-12-28T03:01:47.499Z,4.91
2022-12-28T03:04:38.286Z,4.91
2022-12-28T03:07:19.361Z,4.87
2022-12-28T03:09:33.612Z,4.85
2022-12-28T03:11:59.286Z,4.83
2022-12-28T03:14:06.667Z,4.86
2022-12-28T03:16:12.389Z,4.88
2022-12-28T03:18:34.377Z,4.87
2022-12-28T03:20:54.679Z,4.87
2022-12-28T03:23:19.226Z,4.86
2022-12-28T03:25:42.558Z,4.90
2022-12-28T03:28:05.348Z,4.91
2022-12-28T03:30:36.339Z,4.93
2022-12-28T03:32:38.001Z,4.94
2022-12-28T03:34:39.738Z,4.93
2022-12-28T03:37:02.892Z,4.96
2022-12-28T03:39:16.698Z,4.97
2022-12-28T03:41:43.869Z,4.96
2022-12-28T03:43:50.711Z,4.97
2022-12-28T03:45:59.707Z,4.98
2022-12-28T03:48:02.865Z,4.96
2022-12-28T03:50:05.606Z,4.99
2022-12-28T03:52:09.555Z,5.00
2022-12-28T03:54:14.972Z,4.99
2022-12-28T03:56:22.347Z,5.01
2022-12-28T03:58:23.797Z,5.04
2022-12-28T04:00:25.293Z,5.03
2022-12-28T04:02:26.812Z,5.04
2022-12-28T04:04:28.418Z,5.05
2022-12-28T04:06:29.916Z,5.06
2022-12-28T04:08:32.547Z,5.07
2022-12-28T04:10:34.058Z,5.06
2022-12-28T04:12:35.526Z,5.07
2022-12-28T04:14:36.974Z,5.08
2022-12-28T04:16:38.442Z,5.11
2022-12-28T04:18:41.807Z,5.12
2022-12-28T04:20:43.680Z,5.12
2022-12-28T04:22:45.141Z,5.12
2022-12-28T04:24:46.585Z,5.12
2022-12-28T04:26:48.168Z,5.13
2022-12-28T04:28:49.613Z,5.14
2022-12-28T04:30:51.091Z,5.12
2022-12-28T04:32:54.917Z,5.13
2022-12-28T04:34:56.367Z,5.12
2022-12-28T04:36:57.914Z,5.16
2022-12-28T04:39:00.171Z,5.16
2022-12-28T04:41:02.796Z,5.16
2022-12-28T04:43:04.277Z,5.20
2022-12-28T04:45:06.308Z,5.21
2022-12-28T04:47:07.810Z,5.21
2022-12-28T04:49:09.307Z,5.24
2022-12-28T04:51:17.622Z,5.27
2022-12-28T04:53:19.378Z,5.25
2022-12-28T04:55:32.322Z,5.27
2022-12-28T04:57:34.892Z,5.27
2022-12-28T04:59:36.351Z,5.29
2022-12-28T05:01:37.993Z,5.31
2022-12-28T05:03:41.199Z,5.30
2022-12-28T05:05:42.644Z,5.34
2022-12-28T05:07:44.144Z,5.35
2022-12-28T05:09:45.588Z,5.36
2022-12-28T05:11:47.051Z,5.37
2022-12-28T05:13:48.851Z,5.37
2022-12-28T05:15:50.362Z,5.39
2022-12-28T05:17:51.899Z,5.40
2022-12-28T05:19:53.368Z,5.41
2022-12-28T05:21:54.813Z,5.43
2022-12-28T05:23:57.351Z,5.43
2022-12-28T05:25:59.070Z,5.45
2022-12-28T05:28:00.638Z,5.47
2022-12-28T05:30:02.102Z,5.49
2022-12-28T05:32:03.849Z,5.52
2022-12-28T05:34:05.461Z,5.53
2022-12-28T05:36:13.547Z,5.53
2022-12-28T05:38:15.003Z,5.54
2022-12-28T05:40:16.645Z,5.57
2022-12-28T05:42:18.108Z,5.56
2022-12-28T05:44:19.615Z,5.57
2022-12-28T05:46:24.948Z,5.59
2022-12-28T05:48:26.432Z,5.59
2022-12-28T05:50:28.017Z,5.62
2022-12-28T05:52:30.215Z,5.61
2022-12-28T05:54:31.664Z,5.65
2022-12-28T05:56:34.029Z,5.65
2022-12-28T05:58:35.479Z,5.65
2022-12-28T06:00:36.923Z,5.64
2022-12-28T06:02:38.861Z,5.67
2022-12-28T06:04:40.385Z,5.66
2022-12-28T06:06:41.985Z,5.68
2022-12-28T06:08:45.045Z,5.72
2022-12-28T06:10:46.492Z,5.74
2022-12-28T06:12:47.992Z,5.75
2022-12-28T06:14:49.429Z,5.75
2022-12-28T06:16:51.610Z,5.75
2022-12-28T06:18:53.401Z,5.79
2022-12-28T06:20:57.085Z,5.79
2022-12-28T06:22:58.699Z,5.79
2022-12-28T06:25:00.158Z,5.79
2022-12-28T06:27:01.590Z,5.80
2022-12-28T06:29:03.725Z,5.83
2022-12-28T06:31:07.804Z,5.83
2022-12-28T06:33:09.244Z,5.90
2022-12-28T06:35:10.698Z,5.91
2022-12-28T06:37:12.159Z,5.97
2022-12-28T06:39:14.696Z,5.97
2022-12-28T06:41:17.845Z,5.98
2022-12-28T06:43:19.324Z,6.01
2022-12-28T06:45:20.747Z,6.01
2022-12-28T06:47:22.241Z,6.04
2022-12-28T06:49:23.685Z,6.05
2022-12-28T06:51:28.196Z,6.10
2022-12-28T06:53:32.997Z,6.11
2022-12-28T06:55:34.449Z,6.14
2022-12-28T06:57:35.906Z,6.18
2022-12-28T06:59:37.378Z,6.21
2022-12-28T07:01:41.428Z,6.25
2022-12-28T07:03:44.748Z,6.28
2022-12-28T07:05:46.289Z,6.30
2022-12-28T07:07:47.728Z,6.31
2022-12-28T07:09:49.202Z,6.37
2022-12-28T07:11:51.251Z,6.42
2022-12-28T07:13:52.696Z,6.44
2022-12-28T07:15:54.142Z,6.44
2022-12-28T07:17:55.845Z,6.47
2022-12-28T07:19:57.287Z,6.49
2022-12-28T07:21:58.729Z,6.52
2022-12-28T07:24:00.903Z,6.57
2022-12-28T07:26:14.845Z,6.57
2022-12-28T07:28:16.334Z,6.61
2022-12-28T07:30:18.063Z,6.65
2022-12-28T07:32:19.503Z,6.69
2022-12-28T07:34:21.062Z,6.69
2022-12-28T07:36:24.424Z,6.71
2022-12-28T07:38:25.963Z,6.71
2022-12-28T07:40:27.492Z,6.74
2022-12-28T07:42:29.708Z,6.75
2022-12-28T07:44:35.450Z,6.76
2022-12-28T07:46:40.095Z,6.77
2022-12-28T07:48:43.272Z,6.80
2022-12-28T07:50:44.729Z,6.81
2022-12-28T07:52:46.241Z,6.83
2022-12-28T07:54:47.760Z,6.87
2022-12-28T07:56:49.286Z,6.89
2022-12-28T07:58:56.825Z,6.95
2022-12-28T08:01:15.136Z,6.96
2022-12-28T08:03:19.847Z,6.98
2022-12-28T08:05:21.397Z,7.00
2022-12-28T08:07:22.864Z,7.00
2022-12-28T08:09:24.385Z,7.02
2022-12-28T08:11:28.575Z,7.04
2022-12-28T08:13:32.086Z,7.07
2022-12-28T08:15:33.555Z,7.07
2022-12-28T08:17:35.070Z,7.10
2022-12-28T08:19:36.586Z,7.12
2022-12-28T08:21:40.992Z,7.12
2022-12-28T08:23:42.927Z,7.15
2022-12-28T08:25:44.375Z,7.18
2022-12-28T08:27:45.912Z,7.23
2022-12-28T08:29:47.397Z,7.28
2022-12-28T08:31:49.638Z,7.32
2022-12-28T08:33:53.346Z,7.33
2022-12-28T08:35:57.106Z,7.34
2022-12-28T08:37:58.550Z,7.37
2022-12-28T08:40:00.040Z,7.38
2022-12-28T08:42:01.623Z,7.39
2022-12-28T08:44:03.193Z,7.38
2022-12-28T08:46:07.764Z,7.39
2022-12-28T08:48:09.260Z,7.40
2022-12-28T08:50:12.127Z,7.43
2022-12-28T08:52:13.879Z,7.45
2022-12-28T08:54:15.455Z,7.47
2022-12-28T08:56:19.977Z,7.47
2022-12-28T08:58:21.504Z,7.49
2022-12-28T09:00:23.057Z,7.53
2022-12-28T09:02:24.692Z,7.52
2022-12-28T09:04:26.245Z,7.54
2022-12-28T09:06:30.585Z,7.59
2022-12-28T09:08:32.348Z,7.61
2022-12-28T09:10:33.805Z,7.65
2022-12-28T09:12:35.277Z,7.65
2022-12-28T09:14:36.719Z,7.65
2022-12-28T09:16:39.035Z,7.70
2022-12-28T09:18:42.311Z,7.72
2022-12-28T09:20:47.844Z,7.77
2022-12-28T09:22:49.616Z,7.82
2022-12-28T09:24:51.069Z,7.86
2022-12-28T09:26:54.634Z,7.90
2022-12-28T09:28:58.834Z,7.92
2022-12-28T09:31:11.368Z,7.94
2022-12-28T09:33:31.618Z,7.95
2022-12-28T09:35:33.085Z,7.96
2022-12-28T09:37:34.539Z,7.97
2022-12-28T09:39:36.488Z,8.00
2022-12-28T09:42:08.572Z,8.01
2022-12-28T09:44:26.755Z,8.02
2022-12-28T09:46:32.193Z,8.04
2022-12-28T09:48:35.163Z,8.06
2022-12-28T09:50:37.995Z,8.07
2022-12-28T09:53:29.469Z,8.05
2022-12-28T09:55:34.147Z,8.06
2022-12-28T09:57:40.123Z,8.10
2022-12-28T09:59:42.325Z,8.11
2022-12-28T10:01:46.494Z,8.13
2022-12-28T10:03:48.571Z,8.14
2022-12-28T10:05:51.652Z,8.13
2022-12-28T10:07:55.164Z,8.13
2022-12-28T10:09:56.710Z,8.17
2022-12-28T10:11:59.288Z,8.22
2022-12-28T10:14:15.943Z,8.22
2022-12-28T10:16:19.762Z,8.27
2022-12-28T10:18:26.178Z,8.28
2022-12-28T10:20:27.797Z,8.27
2022-12-28T10:22:42.446Z,8.30
2022-12-28T10:24:47.985Z,8.30
2022-12-28T10:26:49.600Z,8.28
2022-12-28T10:28:59.690Z,8.28
2022-12-28T10:31:10.637Z,8.26
2022-12-28T10:33:18.070Z,8.25
2022-12-28T10:35:35.840Z,8.23
2022-12-28T10:37:44.450Z,8.24
2022-12-28T10:39:56.680Z,8.29
2022-12-28T10:42:00.803Z,8.30
2022-12-28T10:44:39.009Z,8.31
2022-12-28T10:46:37.701Z,8.31
2022-12-28T10:48:39.846Z,8.33
2022-12-28T10:50:44.352Z,8.35
2022-12-28T10:52:56.181Z,8.34
2022-12-28T10:55:07.945Z,8.35
2022-12-28T10:57:17.904Z,8.35
2022-12-28T10:59:25.489Z,8.37
2022-12-28T11:01:29.457Z,8.38
2022-12-28T11:03:35.422Z,8.40
2022-12-28T11:05:37.045Z,8.39
2022-12-28T11:07:41.255Z,8.43
2022-12-28T11:09:42.766Z,8.43
2022-12-28T11:11:46.354Z,8.45
2022-12-28T11:13:56.645Z,8.45
2022-12-28T11:15:58.529Z,8.47
2022-12-28T11:18:07.316Z,8.53
2022-12-28T11:20:17.882Z,8.54
2022-12-28T11:22:28.851Z,8.58
2022-12-28T11:24:34.719Z,8.59
2022-12-28T11:26:40.247Z,8.60
2022-12-28T11:28:51.649Z,8.63
2022-12-28T11:30:53.324Z,8.65
2022-12-28T11:33:00.660Z,8.66
2022-12-28T11:35:03.019Z,8.68
2022-12-28T11:37:04.551Z,8.70
2022-12-28T11:39:27.678Z,8.72
2022-12-28T11:41:39.259Z,8.73
2022-12-28T11:43:49.951Z,8.75
2022-12-28T11:45:54.842Z,8.76
2022-12-28T11:48:34.937Z,8.75
2022-12-28T11:50:38.967Z,8.77
2022-12-28T11:52:49.965Z,8.77
2022-12-28T11:54:59.933Z,8.78
2022-12-28T11:57:01.465Z,8.82
2022-12-28T11:59:20.238Z,8.79
2022-12-28T12:01:28.421Z,8.83
2022-12-28T12:03:57.742Z,8.84
2022-12-28T12:05:59.285Z,8.85
2022-12-28T12:08:01.158Z,8.84
2022-12-28T12:10:13.348Z,8.87
2022-12-28T12:12:18.131Z,8.86
2022-12-28T12:14:44.529Z,8.90
2022-12-28T12:16:53.301Z,8.93
2022-12-28T12:18:56.922Z,8.93
2022-12-28T12:21:13.356Z,8.93
2022-12-28T12:23:34.739Z,8.94
2022-12-28T12:25:44.049Z,8.93
2022-12-28T12:27:53.393Z,8.96
2022-12-28T12:30:01.957Z,8.97
2022-12-28T12:32:23.968Z,8.95
2022-12-28T12:34:50.882Z,8.95
2022-12-28T12:37:30.730Z,8.95
2022-12-28T12:39:52.126Z,8.92
2022-12-28T12:42:15.438Z,8.90
2022-12-28T12:44:25.222Z,8.88
2022-12-28T12:46:48.497Z,8.87
2022-12-28T12:49:14.311Z,8.89
2022-12-28T12:51:29.981Z,8.89
2022-12-28T12:53:37.226Z,8.91
2022-12-28T12:56:17.131Z,8.89
2022-12-28T12:58:24.674Z,8.86
2022-12-28T13:00:58.567Z,8.87
2022-12-28T13:03:09.202Z,8.83
2022-12-28T13:05:31.395Z,8.82
2022-12-28T13:07:33.718Z,8.78
2022-12-28T13:09:36.347Z,8.76
2022-12-28T13:11:39.693Z,8.76
2022-12-28T13:13:43.959Z,8.75
2022-12-28T13:15:45.492Z,8.77
2022-12-28T13:18:18.130Z,8.75
2022-12-28T13:20:21.494Z,8.75
2022-12-28T13:22:28.383Z,8.75
2022-12-28T13:24:34.500Z,8.74
2022-12-28T13:26:42.146Z,8.75
2022-12-28T13:28:55.529Z,8.74
2022-12-28T13:31:17.435Z,8.73
2022-12-28T13:33:21.446Z,8.74
2022-12-28T13:35:29.947Z,8.73
2022-12-28T13:37:31.427Z,8.72
2022-12-28T13:39:40.063Z,8.70
2022-12-28T13:41:52.532Z,8.70
2022-12-28T13:44:12.548Z,8.69
2022-12-28T13:46:17.667Z,8.68
2022-12-28T13:48:19.960Z,8.67
2022-12-28T13:50:26.004Z,8.68
2022-12-28T13:52:34.292Z,8.67
2022-12-28T13:54:37.695Z,8.64
2022-12-28T13:56:42.416Z,8.67
2022-12-28T13:58:50.684Z,8.65
2022-12-28T14:00:55.275Z,8.63
2022-12-28T14:02:58.723Z,8.62
2022-12-28T14:05:00.942Z,8.64
2022-12-28T14:07:02.686Z,8.62
2022-12-28T14:09:05.972Z,8.61
2022-12-28T14:11:08.908Z,8.62
2022-12-28T14:13:11.008Z,8.60
2022-12-28T14:15:13.601Z,8.61
2022-12-28T14:17:15.901Z,8.61
2022-12-28T14:19:19.355Z,8.62
2022-12-28T14:21:32.717Z,8.62
2022-12-28T14:23:36.920Z,8.62
2022-12-28T14:25:42.882Z,8.62
2022-12-28T14:28:06.220Z,8.60
2022-12-28T14:30:25.074Z,8.62
2022-12-28T14:32:27.104Z,8.61
2022-12-28T14:34:31.901Z,8.61
2022-12-28T14:36:42.008Z,8.61
2022-12-28T14:38:49.752Z,8.61
2022-12-28T14:40:59.549Z,8.60
2022-12-28T14:43:17.885Z,8.59
2022-12-28T14:45:34.179Z,8.57
2022-12-28T14:47:35.635Z,8.56
2022-12-28T14:49:37.373Z,8.57
2022-12-28T14:54:23.032Z,8.60
2022-12-28T14:56:44.588Z,8.56
2022-12-28T14:58:54.366Z,8.58
2022-12-28T15:00:59.698Z,8.56
2022-12-28T15:03:20.244Z,8.56
2022-12-28T15:05:45.551Z,8.54
2022-12-28T15:07:47.024Z,8.55
2022-12-28T15:09:48.551Z,8.55
2022-12-28T15:11:50.194Z,8.55
2022-12-28T15:13:51.938Z,8.56
2022-12-28T15:15:59.218Z,8.56
2022-12-28T15:18:00.847Z,8.57
2022-12-28T15:20:02.330Z,8.57
2022-12-28T15:22:03.907Z,8.58
2022-12-28T15:24:05.834Z,8.58
2022-12-28T15:26:10.022Z,8.57
2022-12-28T15:28:11.606Z,8.57
2022-12-28T15:30:18.279Z,8.56
2022-12-28T15:32:21.879Z,8.52
2022-12-28T15:34:23.733Z,8.53
2022-12-28T15:37:04.565Z,8.52
2022-12-28T15:39:06.094Z,8.52
2022-12-28T15:41:27.858Z,8.52
2022-12-28T15:43:29.513Z,8.49
2022-12-28T15:45:32.378Z,8.48
2022-12-28T15:47:33.845Z,8.48
2022-12-28T15:49:35.324Z,8.48
2022-12-28T15:51:36.844Z,8.48
2022-12-28T15:53:38.320Z,8.48
2022-12-28T15:55:40.031Z,8.48
2022-12-28T15:57:41.621Z,8.49
2022-12-28T15:59:43.145Z,8.49
2022-12-28T16:01:45.173Z,8.49
2022-12-28T16:03:52.074Z,8.48
2022-12-28T16:05:58.966Z,8.48
2022-12-28T16:08:00.501Z,8.50
2022-12-28T16:10:02.016Z,8.50
2022-12-28T16:12:03.824Z,8.53
2022-12-28T16:14:07.126Z,8.48
2022-12-28T16:16:11.448Z,8.48
2022-12-28T16:18:13.045Z,8.46
2022-12-28T16:20:14.539Z,8.46
2022-12-28T16:22:16.006Z,8.46
2022-12-28T16:24:20.360Z,8.46
2022-12-28T16:26:22.817Z,8.43
2022-12-28T16:28:25.556Z,8.44
2022-12-28T16:30:26.998Z,8.43
2022-12-28T16:32:28.963Z,8.43
2022-12-28T16:34:31.672Z,8.42
2022-12-28T16:36:33.336Z,8.42
2022-12-28T16:38:34.820Z,8.42
2022-12-28T16:40:36.265Z,8.40
2022-12-28T16:42:37.747Z,8.41
2022-12-28T16:44:40.118Z,8.39
2022-12-28T16:46:42.480Z,8.38
2022-12-28T16:48:44.142Z,8.38
2022-12-28T16:50:56.450Z,8.37
2022-12-28T16:53:05.401Z,8.37
2022-12-28T16:55:07.119Z,8.35
2022-12-28T16:57:08.631Z,8.36
2022-12-28T16:59:13.696Z,8.35
2022-12-28T17:01:15.236Z,8.34
2022-12-28T17:03:16.860Z,8.33
2022-12-28T17:05:18.385Z,8.35
2022-12-28T17:07:19.844Z,8.38
2022-12-28T17:09:22.017Z,8.39
2022-12-28T17:11:23.501Z,8.39
2022-12-28T17:13:24.978Z,8.39
2022-12-28T17:15:26.470Z,8.38
2022-12-28T17:17:28.054Z,8.41
2022-12-28T17:19:29.544Z,8.40
2022-12-28T17:21:32.367Z,8.38
2022-12-28T17:23:33.957Z,8.40
2022-12-28T17:25:36.478Z,8.38
2022-12-28T17:27:37.967Z,8.37
2022-12-28T17:29:39.794Z,8.37
2022-12-28T17:31:41.323Z,8.38
2022-12-28T17:33:48.606Z,8.41
2022-12-28T17:35:54.725Z,8.42
2022-12-28T17:37:56.205Z,8.44
2022-12-28T17:39:58.100Z,8.42
2022-12-28T17:41:59.996Z,8.45
2022-12-28T17:44:01.584Z,8.46
2022-12-28T17:46:03.265Z,8.47
2022-12-28T17:48:05.170Z,8.45
2022-12-28T17:50:07.425Z,8.44
2022-12-28T17:52:08.924Z,8.44
2022-12-28T17:54:11.906Z,8.44
2022-12-28T17:56:14.275Z,8.44
2022-12-28T17:58:16.129Z,8.47
2022-12-28T18:00:17.896Z,8.48
2022-12-28T18:02:19.509Z,8.49
2022-12-28T18:04:21.105Z,8.47
2022-12-28T18:06:22.850Z,8.47
2022-12-28T18:08:24.391Z,8.53
2022-12-28T18:10:26.081Z,8.56
2022-12-28T18:12:27.853Z,8.56
2022-12-28T18:14:29.596Z,8.58
2022-12-28T18:16:31.093Z,8.59
2022-12-28T18:18:33.361Z,8.62
2022-12-28T18:20:35.106Z,8.63
2022-12-28T18:22:36.602Z,8.64
2022-12-28T18:24:38.256Z,8.64
2022-12-28T18:26:39.833Z,8.66
2022-12-28T18:28:41.392Z,8.65
2022-12-28T18:30:43.374Z,8.63
2022-12-28T18:32:44.890Z,8.60
2022-12-28T18:34:46.384Z,8.60
2022-12-28T18:36:47.906Z,8.60
2022-12-28T18:38:50.052Z,8.59
2022-12-28T18:40:57.162Z,8.57
2022-12-28T18:42:58.659Z,8.56
2022-12-28T18:45:00.165Z,8.53
2022-12-28T18:47:01.624Z,8.48
2022-12-28T18:49:03.166Z,8.47
2022-12-28T18:51:08.311Z,8.43
2022-12-28T18:53:09.761Z,8.43
2022-12-28T18:55:11.284Z,8.41
2022-12-28T18:57:12.741Z,8.37
2022-12-28T18:59:14.204Z,8.33
2022-12-28T19:03:45.099Z,8.26
2022-12-28T19:05:46.867Z,8.23
2022-12-28T19:07:49.661Z,8.23
2022-12-28T19:10:12.437Z,8.20
2022-12-28T19:12:15.138Z,8.13
2022-12-28T19:14:16.698Z,8.10
2022-12-28T19:16:24.463Z,8.09
2022-12-28T19:18:30.323Z,8.05
2022-12-28T19:20:31.787Z,8.08
2022-12-28T19:22:33.379Z,8.06
2022-12-28T19:24:34.822Z,8.06
2022-12-28T19:26:36.389Z,8.03
2022-12-28T19:28:37.964Z,8.03
2022-12-28T19:30:39.412Z,8.02
2022-12-28T19:32:40.839Z,8.01
2022-12-28T19:34:42.312Z,7.99
2022-12-28T19:36:43.864Z,7.98
2022-12-28T19:38:45.707Z,7.98
2022-12-28T19:40:47.544Z,7.98
2022-12-28T19:42:49.126Z,8.00
2022-12-28T19:44:50.673Z,7.99
2022-12-28T19:46:54.004Z,7.99
2022-12-28T19:48:55.527Z,7.97
2022-12-28T19:50:57.172Z,7.96
2022-12-28T19:52:58.697Z,7.96
2022-12-28T19:55:00.230Z,7.95
2022-12-28T19:57:01.824Z,7.92
2022-12-28T19:59:06.677Z,7.88
2022-12-28T20:01:22.953Z,7.89
2022-12-28T20:03:24.518Z,7.89
2022-12-28T20:05:26.178Z,7.90
2022-12-28T20:07:27.646Z,7.88
2022-12-28T20:09:29.125Z,7.88
2022-12-28T20:11:30.616Z,7.86
2022-12-28T20:13:33.210Z,7.84
2022-12-28T20:15:34.999Z,7.81
2022-12-28T20:17:36.437Z,7.82
2022-12-28T20:19:38.565Z,7.84
2022-12-28T20:21:41.899Z,7.84
2022-12-28T20:23:44.152Z,7.84
2022-12-28T20:25:53.868Z,7.83
2022-12-28T20:27:55.339Z,7.83
2022-12-28T20:29:57.065Z,7.83
2022-12-28T20:31:58.710Z,7.82
2022-12-28T20:34:00.487Z,7.84
2022-12-28T20:36:11.951Z,7.85
2022-12-28T20:38:13.405Z,7.86
2022-12-28T20:40:14.843Z,7.84
2022-12-28T20:42:54.885Z,7.84
2022-12-28T20:44:58.427Z,7.87
2022-12-28T20:47:01.864Z,7.88
2022-12-28T20:49:04.209Z,7.88
2022-12-28T20:51:05.754Z,7.88
2022-12-28T20:53:07.298Z,7.87
2022-12-28T20:55:08.860Z,7.88
2022-12-28T20:57:10.327Z,7.90
2022-12-28T20:59:13.371Z,7.87
2022-12-28T21:01:16.053Z,7.87
2022-12-28T21:03:17.587Z,7.84
2022-12-28T21:05:19.091Z,7.87
2022-12-28T21:07:20.606Z,7.92
2022-12-28T21:09:22.409Z,7.93
2022-12-28T21:11:24.183Z,7.94
2022-12-28T21:13:26.390Z,7.97
2022-12-28T21:15:28.121Z,8.00
2022-12-28T21:17:29.628Z,8.02
2022-12-28T21:19:31.064Z,8.05
2022-12-28T21:21:32.578Z,8.07
2022-12-28T21:23:34.118Z,8.09
2022-12-28T21:25:35.557Z,8.10
2022-12-28T21:27:37.056Z,8.10
2022-12-28T21:29:38.513Z,8.10
2022-12-28T21:31:40.048Z,8.11
2022-12-28T21:33:42.274Z,8.11
2022-12-28T21:35:43.712Z,8.11
2022-12-28T21:37:45.179Z,8.11
2022-12-28T21:39:46.858Z,8.12
2022-12-28T21:41:48.648Z,8.14
2022-12-28T21:43:50.103Z,8.14
2022-12-28T21:46:03.084Z,8.14
2022-12-28T21:48:04.824Z,8.16
2022-12-28T21:50:08.353Z,8.20
2022-12-28T21:52:09.829Z,8.19
2022-12-28T21:54:22.120Z,8.23
2022-12-28T21:56:23.971Z,8.25
2022-12-28T21:58:25.457Z,8.24
2022-12-28T22:00:45.616Z,8.24
2022-12-28T22:03:05.794Z,8.23
2022-12-28T22:05:27.997Z,8.24
2022-12-28T22:07:30.557Z,8.25
2022-12-28T22:09:52.683Z,8.25
2022-12-28T22:12:12.347Z,8.24
2022-12-28T22:14:13.777Z,8.24
2022-12-28T22:16:15.300Z,8.24
2022-12-28T22:20:39.644Z,8.24
2022-12-28T22:22:42.528Z,8.26
2022-12-28T22:24:43.991Z,8.26
2022-12-28T22:26:45.515Z,8.28
2022-12-28T22:28:46.999Z,8.32
2022-12-28T22:30:48.440Z,8.31
2022-12-28T22:32:49.940Z,8.35
2022-12-28T22:34:51.514Z,8.40
2022-12-28T22:36:52.950Z,8.41
2022-12-28T22:38:54.608Z,8.42
2022-12-28T22:40:57.654Z,8.45
2022-12-28T22:42:59.101Z,8.47
2022-12-28T22:45:00.560Z,8.47
2022-12-28T22:47:02.130Z,8.50
2022-12-28T22:49:03.669Z,8.53
2022-12-28T22:51:10.910Z,8.56
2022-12-28T22:53:12.373Z,8.58
2022-12-28T22:55:14.538Z,8.57
2022-12-28T22:57:15.993Z,8.57
2022-12-28T22:59:17.440Z,8.59
2022-12-28T23:01:20.480Z,8.59
2022-12-28T23:03:22.047Z,8.61
2022-12-28T23:05:23.522Z,8.61
2022-12-28T23:07:24.979Z,8.62
2022-12-28T23:09:26.512Z,8.66
2022-12-28T23:11:36.721Z,8.67
2022-12-28T23:13:38.196Z,8.68
2022-12-28T23:15:39.639Z,8.68
2022-12-28T23:17:41.091Z,8.71
2022-12-28T23:20:05.290Z,8.75
2022-12-28T23:22:26.111Z,8.77
2022-12-28T23:24:45.931Z,8.79
2022-12-28T23:27:05.819Z,8.81
2022-12-28T23:29:07.252Z,8.84
2022-12-28T23:31:08.771Z,8.89
2022-12-28T23:33:10.307Z,8.93
2022-12-28T23:35:11.790Z,8.97
2022-12-28T23:37:13.269Z,8.99
2022-12-28T23:39:14.716Z,8.99
2022-12-28T23:41:35.152Z,9.04
2022-12-28T23:43:36.618Z,9.07
2022-12-28T23:45:38.210Z,9.09
2022-12-28T23:47:40.044Z,9.10
2022-12-28T23:49:41.489Z,9.12
2022-12-28T23:51:44.838Z,9.14
2022-12-28T23:53:46.352Z,9.12
2022-12-28T23:55:47.800Z,9.18
2022-12-28T23:57:49.269Z,9.20
2022-12-28T23:59:50.739Z,9.19
